sensor_id;sensor_type;location;lat;lon;timestamp;P1;durP1;ratioP1;P2;durP2;ratioP2
31442;SDS011;18065;55.876;9.830;2023-08-17T00:01:59;0.82;;;0.40;;
31442;SDS011;18065;55.876;9.830;2023-08-17T00:04:28;0.70;;;0.30;;
31442;SDS011;18065;55.876;9.830;2023-08-17T00:06:57;0.70;;;0.32;;
31442;SDS011;18065;55.876;9.830;2023-08-17T00:09:26;0.90;;;0.40;;
31442;SDS011;18065;55.876;9.830;2023-08-17T00:11:57;0.38;;;0.38;;
31442;SDS011;18065;55.876;9.830;2023-08-17T00:14:26;1.20;;;0.40;;
31442;SDS011;18065;55.876;9.830;2023-08-17T00:16:55;1.58;;;0.50;;
31442;SDS011;18065;55.876;9.830;2023-08-17T00:19:24;1.50;;;0.50;;
31442;SDS011;18065;55.876;9.830;2023-08-17T00:21:53;1.45;;;0.70;;
31442;SDS011;18065;55.876;9.830;2023-08-17T00:24:23;0.88;;;0.60;;
31442;SDS011;18065;55.876;9.830;2023-08-17T00:26:51;0.57;;;0.40;;
31442;SDS011;18065;55.876;9.830;2023-08-17T00:29:22;0.65;;;0.43;;
31442;SDS011;18065;55.876;9.830;2023-08-17T00:31:51;0.93;;;0.40;;
31442;SDS011;18065;55.876;9.830;2023-08-17T00:34:20;1.35;;;0.57;;
31442;SDS011;18065;55.876;9.830;2023-08-17T00:36:49;1.02;;;0.47;;
31442;SDS011;18065;55.876;9.830;2023-08-17T00:39:17;0.82;;;0.50;;
31442;SDS011;18065;55.876;9.830;2023-08-17T00:41:46;0.68;;;0.50;;
31442;SDS011;18065;55.876;9.830;2023-08-17T00:44:15;3.63;;;0.50;;
31442;SDS011;18065;55.876;9.830;2023-08-17T00:46:46;2.10;;;0.50;;
31442;SDS011;18065;55.876;9.830;2023-08-17T00:49:15;0.30;;;0.30;;
31442;SDS011;18065;55.876;9.830;2023-08-17T00:51:44;0.52;;;0.40;;
31442;SDS011;18065;55.876;9.830;2023-08-17T00:54:13;1.10;;;0.60;;
31442;SDS011;18065;55.876;9.830;2023-08-17T00:56:43;0.57;;;0.50;;
31442;SDS011;18065;55.876;9.830;2023-08-17T00:59:12;2.90;;;0.73;;
31442;SDS011;18065;55.876;9.830;2023-08-17T01:01:41;0.80;;;0.50;;
31442;SDS011;18065;55.876;9.830;2023-08-17T01:04:12;1.42;;;0.55;;
31442;SDS011;18065;55.876;9.830;2023-08-17T01:06:41;1.20;;;0.57;;
31442;SDS011;18065;55.876;9.830;2023-08-17T01:09:10;0.77;;;0.57;;
31442;SDS011;18065;55.876;9.830;2023-08-17T01:11:41;2.47;;;0.63;;
31442;SDS011;18065;55.876;9.830;2023-08-17T01:14:20;1.38;;;0.55;;
31442;SDS011;18065;55.876;9.830;2023-08-17T01:16:56;0.77;;;0.50;;
31442;SDS011;18065;55.876;9.830;2023-08-17T01:19:32;0.68;;;0.43;;
31442;SDS011;18065;55.876;9.830;2023-08-17T01:22:03;1.20;;;0.60;;
31442;SDS011;18065;55.876;9.830;2023-08-17T01:24:36;2.63;;;0.55;;
31442;SDS011;18065;55.876;9.830;2023-08-17T01:27:05;1.45;;;0.52;;
31442;SDS011;18065;55.876;9.830;2023-08-17T01:29:33;1.00;;;0.47;;
31442;SDS011;18065;55.876;9.830;2023-08-17T01:32:04;1.38;;;0.40;;
31442;SDS011;18065;55.876;9.830;2023-08-17T01:34:39;1.23;;;0.45;;
31442;SDS011;18065;55.876;9.830;2023-08-17T01:37:10;2.75;;;0.70;;
31442;SDS011;18065;55.876;9.830;2023-08-17T01:39:44;1.50;;;0.70;;
31442;SDS011;18065;55.876;9.830;2023-08-17T01:42:15;1.27;;;0.52;;
31442;SDS011;18065;55.876;9.830;2023-08-17T01:44:44;0.77;;;0.50;;
31442;SDS011;18065;55.876;9.830;2023-08-17T01:47:13;1.40;;;0.65;;
31442;SDS011;18065;55.876;9.830;2023-08-17T01:49:42;2.58;;;0.88;;
31442;SDS011;18065;55.876;9.830;2023-08-17T01:52:11;1.27;;;0.52;;
31442;SDS011;18065;55.876;9.830;2023-08-17T01:54:39;1.00;;;0.50;;
31442;SDS011;18065;55.876;9.830;2023-08-17T01:57:11;1.70;;;0.70;;
31442;SDS011;18065;55.876;9.830;2023-08-17T01:59:39;2.25;;;0.60;;
31442;SDS011;18065;55.876;9.830;2023-08-17T02:02:08;1.15;;;0.50;;
31442;SDS011;18065;55.876;9.830;2023-08-17T02:04:39;1.02;;;0.40;;
31442;SDS011;18065;55.876;9.830;2023-08-17T02:07:08;1.85;;;0.50;;
31442;SDS011;18065;55.876;9.830;2023-08-17T02:09:37;0.55;;;0.50;;
31442;SDS011;18065;55.876;9.830;2023-08-17T02:12:06;0.93;;;0.50;;
31442;SDS011;18065;55.876;9.830;2023-08-17T02:14:37;1.30;;;0.60;;
31442;SDS011;18065;55.876;9.830;2023-08-17T02:17:06;1.38;;;0.55;;
31442;SDS011;18065;55.876;9.830;2023-08-17T02:19:34;2.28;;;0.60;;
31442;SDS011;18065;55.876;9.830;2023-08-17T02:22:04;1.20;;;0.40;;
31442;SDS011;18065;55.876;9.830;2023-08-17T02:24:33;0.80;;;0.52;;
31442;SDS011;18065;55.876;9.830;2023-08-17T02:27:01;1.48;;;0.50;;
31442;SDS011;18065;55.876;9.830;2023-08-17T02:29:30;0.75;;;0.40;;
31442;SDS011;18065;55.876;9.830;2023-08-17T02:32:02;0.82;;;0.45;;
31442;SDS011;18065;55.876;9.830;2023-08-17T02:34:30;0.68;;;0.50;;
31442;SDS011;18065;55.876;9.830;2023-08-17T02:36:59;0.65;;;0.40;;
31442;SDS011;18065;55.876;9.830;2023-08-17T02:39:28;2.17;;;0.43;;
31442;SDS011;18065;55.876;9.830;2023-08-17T02:41:56;0.98;;;0.40;;
31442;SDS011;18065;55.876;9.830;2023-08-17T02:44:25;2.10;;;0.50;;
31442;SDS011;18065;55.876;9.830;2023-08-17T02:46:55;2.63;;;0.60;;
31442;SDS011;18065;55.876;9.830;2023-08-17T02:49:26;1.98;;;0.50;;
31442;SDS011;18065;55.876;9.830;2023-08-17T02:51:54;0.68;;;0.50;;
31442;SDS011;18065;55.876;9.830;2023-08-17T02:54:23;2.25;;;0.63;;
31442;SDS011;18065;55.876;9.830;2023-08-17T02:56:52;1.20;;;0.60;;
31442;SDS011;18065;55.876;9.830;2023-08-17T02:59:20;0.90;;;0.50;;
31442;SDS011;18065;55.876;9.830;2023-08-17T03:01:49;1.52;;;0.60;;
31442;SDS011;18065;55.876;9.830;2023-08-17T03:04:18;1.10;;;0.80;;
31442;SDS011;18065;55.876;9.830;2023-08-17T03:06:49;1.48;;;0.68;;
31442;SDS011;18065;55.876;9.830;2023-08-17T03:09:18;1.50;;;0.60;;
31442;SDS011;18065;55.876;9.830;2023-08-17T03:11:46;1.40;;;0.70;;
31442;SDS011;18065;55.876;9.830;2023-08-17T03:14:15;2.65;;;0.90;;
31442;SDS011;18065;55.876;9.830;2023-08-17T03:16:44;1.92;;;0.60;;
31442;SDS011;18065;55.876;9.830;2023-08-17T03:19:12;1.55;;;0.60;;
31442;SDS011;18065;55.876;9.830;2023-08-17T03:21:41;1.13;;;0.65;;
31442;SDS011;18065;55.876;9.830;2023-08-17T03:24:12;1.35;;;0.70;;
31442;SDS011;18065;55.876;9.830;2023-08-17T03:26:41;2.63;;;0.77;;
31442;SDS011;18065;55.876;9.830;2023-08-17T03:29:09;0.82;;;0.60;;
31442;SDS011;18065;55.876;9.830;2023-08-17T03:31:38;1.10;;;0.60;;
31442;SDS011;18065;55.876;9.830;2023-08-17T03:34:07;1.38;;;0.60;;
31442;SDS011;18065;55.876;9.830;2023-08-17T03:36:35;1.45;;;0.65;;
31442;SDS011;18065;55.876;9.830;2023-08-17T03:39:04;0.70;;;0.60;;
31442;SDS011;18065;55.876;9.830;2023-08-17T03:41:35;1.27;;;0.60;;
31442;SDS011;18065;55.876;9.830;2023-08-17T03:44:04;1.80;;;0.80;;
31442;SDS011;18065;55.876;9.830;2023-08-17T03:46:34;2.90;;;0.77;;
31442;SDS011;18065;55.876;9.830;2023-08-17T03:49:03;1.70;;;0.75;;
31442;SDS011;18065;55.876;9.830;2023-08-17T03:51:31;2.80;;;0.70;;
31442;SDS011;18065;55.876;9.830;2023-08-17T03:54:00;1.17;;;0.70;;
31442;SDS011;18065;55.876;9.830;2023-08-17T03:56:29;3.03;;;0.50;;
31442;SDS011;18065;55.876;9.830;2023-08-17T03:59:03;1.33;;;0.60;;
31442;SDS011;18065;55.876;9.830;2023-08-17T04:01:32;0.77;;;0.50;;
31442;SDS011;18065;55.876;9.830;2023-08-17T04:04:00;3.10;;;0.45;;
31442;SDS011;18065;55.876;9.830;2023-08-17T04:06:29;2.85;;;0.50;;
31442;SDS011;18065;55.876;9.830;2023-08-17T04:08:58;1.35;;;0.60;;
31442;SDS011;18065;55.876;9.830;2023-08-17T04:11:27;0.88;;;0.68;;
31442;SDS011;18065;55.876;9.830;2023-08-17T04:13:55;1.55;;;0.60;;
31442;SDS011;18065;55.876;9.830;2023-08-17T04:16:27;2.58;;;0.60;;
31442;SDS011;18065;55.876;9.830;2023-08-17T04:18:55;0.75;;;0.60;;
31442;SDS011;18065;55.876;9.830;2023-08-17T04:21:24;1.98;;;0.70;;
31442;SDS011;18065;55.876;9.830;2023-08-17T04:23:53;5.30;;;0.80;;
31442;SDS011;18065;55.876;9.830;2023-08-17T04:26:22;2.10;;;1.00;;
31442;SDS011;18065;55.876;9.830;2023-08-17T04:28:50;1.55;;;0.70;;
31442;SDS011;18065;55.876;9.830;2023-08-17T04:31:19;2.70;;;1.13;;
31442;SDS011;18065;55.876;9.830;2023-08-17T04:33:50;1.83;;;0.80;;
31442;SDS011;18065;55.876;9.830;2023-08-17T04:36:21;1.42;;;0.70;;
31442;SDS011;18065;55.876;9.830;2023-08-17T04:38:49;2.00;;;0.57;;
31442;SDS011;18065;55.876;9.830;2023-08-17T04:41:18;3.80;;;0.68;;
31442;SDS011;18065;55.876;9.830;2023-08-17T04:43:47;1.20;;;0.52;;
31442;SDS011;18065;55.876;9.830;2023-08-17T04:46:15;2.35;;;0.70;;
31442;SDS011;18065;55.876;9.830;2023-08-17T04:48:44;0.93;;;0.63;;
31442;SDS011;18065;55.876;9.830;2023-08-17T04:51:16;1.80;;;0.68;;
31442;SDS011;18065;55.876;9.830;2023-08-17T04:53:44;2.50;;;0.90;;
31442;SDS011;18065;55.876;9.830;2023-08-17T04:56:13;4.57;;;0.90;;
31442;SDS011;18065;55.876;9.830;2023-08-17T04:58:42;2.63;;;0.82;;
31442;SDS011;18065;55.876;9.830;2023-08-17T05:01:10;2.53;;;0.80;;
31442;SDS011;18065;55.876;9.830;2023-08-17T05:03:39;2.40;;;0.70;;
31442;SDS011;18065;55.876;9.830;2023-08-17T05:06:08;1.92;;;0.70;;
31442;SDS011;18065;55.876;9.830;2023-08-17T05:08:39;1.55;;;0.52;;
31442;SDS011;18065;55.876;9.830;2023-08-17T05:11:08;1.80;;;0.57;;
31442;SDS011;18065;55.876;9.830;2023-08-17T05:13:37;2.35;;;0.85;;
31442;SDS011;18065;55.876;9.830;2023-08-17T05:16:08;2.80;;;0.60;;
31442;SDS011;18065;55.876;9.830;2023-08-17T05:18:36;3.38;;;0.70;;
31442;SDS011;18065;55.876;9.830;2023-08-17T05:21:05;1.38;;;0.63;;
31442;SDS011;18065;55.876;9.830;2023-08-17T05:23:34;1.27;;;0.60;;
31442;SDS011;18065;55.876;9.830;2023-08-17T05:26:05;1.65;;;0.73;;
31442;SDS011;18065;55.876;9.830;2023-08-17T05:28:35;1.70;;;0.60;;
31442;SDS011;18065;55.876;9.830;2023-08-17T05:31:04;1.75;;;0.77;;
31442;SDS011;18065;55.876;9.830;2023-08-17T05:33:33;1.55;;;0.57;;
31442;SDS011;18065;55.876;9.830;2023-08-17T05:36:06;1.10;;;0.55;;
31442;SDS011;18065;55.876;9.830;2023-08-17T05:38:35;2.58;;;0.80;;
31442;SDS011;18065;55.876;9.830;2023-08-17T05:41:06;2.85;;;0.70;;
31442;SDS011;18065;55.876;9.830;2023-08-17T05:43:35;3.28;;;0.70;;
31442;SDS011;18065;55.876;9.830;2023-08-17T05:46:03;0.98;;;0.50;;
31442;SDS011;18065;55.876;9.830;2023-08-17T05:48:32;4.13;;;0.60;;
31442;SDS011;18065;55.876;9.830;2023-08-17T05:51:01;3.97;;;0.70;;
31442;SDS011;18065;55.876;9.830;2023-08-17T05:53:30;2.60;;;0.80;;
31442;SDS011;18065;55.876;9.830;2023-08-17T05:55:59;2.20;;;0.50;;
31442;SDS011;18065;55.876;9.830;2023-08-17T05:58:30;2.15;;;0.70;;
31442;SDS011;18065;55.876;9.830;2023-08-17T06:01:04;1.95;;;0.80;;
31442;SDS011;18065;55.876;9.830;2023-08-17T06:03:33;2.20;;;0.77;;
31442;SDS011;18065;55.876;9.830;2023-08-17T06:06:02;1.63;;;0.60;;
31442;SDS011;18065;55.876;9.830;2023-08-17T06:08:31;3.35;;;0.80;;
31442;SDS011;18065;55.876;9.830;2023-08-17T06:11:00;1.90;;;0.75;;
31442;SDS011;18065;55.876;9.830;2023-08-17T06:13:31;2.90;;;1.02;;
31442;SDS011;18065;55.876;9.830;2023-08-17T06:16:00;2.45;;;0.70;;
31442;SDS011;18065;55.876;9.830;2023-08-17T06:18:29;1.95;;;0.70;;
31442;SDS011;18065;55.876;9.830;2023-08-17T06:20:58;2.85;;;0.70;;
31442;SDS011;18065;55.876;9.830;2023-08-17T06:23:27;2.03;;;0.60;;
31442;SDS011;18065;55.876;9.830;2023-08-17T06:25:56;2.55;;;0.75;;
31442;SDS011;18065;55.876;9.830;2023-08-17T06:28:25;1.75;;;0.73;;
31442;SDS011;18065;55.876;9.830;2023-08-17T06:30:57;1.10;;;0.70;;
31442;SDS011;18065;55.876;9.830;2023-08-17T06:33:25;1.20;;;0.70;;
31442;SDS011;18065;55.876;9.830;2023-08-17T06:35:54;1.88;;;0.80;;
31442;SDS011;18065;55.876;9.830;2023-08-17T06:38:23;1.75;;;0.70;;
31442;SDS011;18065;55.876;9.830;2023-08-17T06:40:51;1.45;;;0.60;;
31442;SDS011;18065;55.876;9.830;2023-08-17T06:43:20;1.23;;;0.63;;
31442;SDS011;18065;55.876;9.830;2023-08-17T06:45:49;0.88;;;0.50;;
31442;SDS011;18065;55.876;9.830;2023-08-17T06:48:20;2.17;;;0.60;;
31442;SDS011;18065;55.876;9.830;2023-08-17T06:50:49;1.50;;;0.60;;
31442;SDS011;18065;55.876;9.830;2023-08-17T06:53:18;1.27;;;0.77;;
31442;SDS011;18065;55.876;9.830;2023-08-17T06:55:46;1.45;;;0.50;;
31442;SDS011;18065;55.876;9.830;2023-08-17T06:58:15;0.93;;;0.50;;
31442;SDS011;18065;55.876;9.830;2023-08-17T07:00:44;2.45;;;0.60;;
31442;SDS011;18065;55.876;9.830;2023-08-17T07:03:12;2.00;;;0.43;;
31442;SDS011;18065;55.876;9.830;2023-08-17T07:05:44;5.10;;;0.77;;
31442;SDS011;18065;55.876;9.830;2023-08-17T07:08:13;1.67;;;0.60;;
31442;SDS011;18065;55.876;9.830;2023-08-17T07:10:42;1.55;;;0.73;;
31442;SDS011;18065;55.876;9.830;2023-08-17T07:13:10;2.45;;;0.90;;
31442;SDS011;18065;55.876;9.830;2023-08-17T07:15:39;1.70;;;0.60;;
31442;SDS011;18065;55.876;9.830;2023-08-17T07:18:08;2.97;;;0.60;;
31442;SDS011;18065;55.876;9.830;2023-08-17T07:20:36;1.45;;;0.40;;
31442;SDS011;18065;55.876;9.830;2023-08-17T07:23:08;0.93;;;0.60;;
31442;SDS011;18065;55.876;9.830;2023-08-17T07:25:36;2.00;;;0.60;;
31442;SDS011;18065;55.876;9.830;2023-08-17T07:28:05;1.30;;;0.60;;
31442;SDS011;18065;55.876;9.830;2023-08-17T07:30:34;1.98;;;0.68;;
31442;SDS011;18065;55.876;9.830;2023-08-17T07:33:03;4.90;;;0.82;;
31442;SDS011;18065;55.876;9.830;2023-08-17T07:35:31;0.50;;;0.47;;
31442;SDS011;18065;55.876;9.830;2023-08-17T07:38:00;3.92;;;0.68;;
31442;SDS011;18065;55.876;9.830;2023-08-17T07:40:31;2.33;;;0.73;;
31442;SDS011;18065;55.876;9.830;2023-08-17T07:43:01;2.33;;;0.85;;
31442;SDS011;18065;55.876;9.830;2023-08-17T07:45:29;2.70;;;0.70;;
31442;SDS011;18065;55.876;9.830;2023-08-17T07:47:58;1.48;;;0.77;;
31442;SDS011;18065;55.876;9.830;2023-08-17T07:50:26;1.73;;;0.60;;
31442;SDS011;18065;55.876;9.830;2023-08-17T07:52:55;1.48;;;0.60;;
31442;SDS011;18065;55.876;9.830;2023-08-17T07:55:25;1.33;;;0.60;;
31442;SDS011;18065;55.876;9.830;2023-08-17T07:57:57;2.60;;;0.80;;
31442;SDS011;18065;55.876;9.830;2023-08-17T08:00:25;1.63;;;0.65;;
31442;SDS011;18065;55.876;9.830;2023-08-17T08:02:54;2.70;;;0.63;;
31442;SDS011;18065;55.876;9.830;2023-08-17T08:05:23;1.98;;;0.80;;
31442;SDS011;18065;55.876;9.830;2023-08-17T08:07:52;1.42;;;0.50;;
31442;SDS011;18065;55.876;9.830;2023-08-17T08:10:20;2.28;;;0.60;;
31442;SDS011;18065;55.876;9.830;2023-08-17T08:12:49;2.15;;;0.80;;
31442;SDS011;18065;55.876;9.830;2023-08-17T08:15:21;3.58;;;0.60;;
31442;SDS011;18065;55.876;9.830;2023-08-17T08:17:50;2.53;;;0.70;;
31442;SDS011;18065;55.876;9.830;2023-08-17T08:20:19;2.55;;;0.80;;
31442;SDS011;18065;55.876;9.830;2023-08-17T08:22:51;3.75;;;0.77;;
31442;SDS011;18065;55.876;9.830;2023-08-17T08:25:20;2.25;;;0.82;;
31442;SDS011;18065;55.876;9.830;2023-08-17T08:27:49;2.88;;;0.70;;
31442;SDS011;18065;55.876;9.830;2023-08-17T08:30:17;1.08;;;0.60;;
31442;SDS011;18065;55.876;9.830;2023-08-17T08:32:49;3.45;;;0.70;;
31442;SDS011;18065;55.876;9.830;2023-08-17T08:35:18;4.10;;;0.73;;
31442;SDS011;18065;55.876;9.830;2023-08-17T08:37:47;3.72;;;0.60;;
31442;SDS011;18065;55.876;9.830;2023-08-17T08:40:16;2.40;;;0.70;;
31442;SDS011;18065;55.876;9.830;2023-08-17T08:42:45;2.45;;;0.70;;
31442;SDS011;18065;55.876;9.830;2023-08-17T08:45:14;2.78;;;0.77;;
31442;SDS011;18065;55.876;9.830;2023-08-17T08:47:46;2.80;;;1.05;;
31442;SDS011;18065;55.876;9.830;2023-08-17T08:50:16;1.95;;;0.80;;
31442;SDS011;18065;55.876;9.830;2023-08-17T08:52:52;1.52;;;0.60;;
31442;SDS011;18065;55.876;9.830;2023-08-17T08:55:27;1.52;;;0.50;;
31442;SDS011;18065;55.876;9.830;2023-08-17T08:57:58;1.40;;;0.60;;
31442;SDS011;18065;55.876;9.830;2023-08-17T09:00:27;4.45;;;0.70;;
31442;SDS011;18065;55.876;9.830;2023-08-17T09:03:00;2.88;;;0.57;;
31442;SDS011;18065;55.876;9.830;2023-08-17T09:05:31;2.38;;;0.63;;
31442;SDS011;18065;55.876;9.830;2023-08-17T09:08:02;1.13;;;0.60;;
31442;SDS011;18065;55.876;9.830;2023-08-17T09:10:31;1.48;;;0.50;;
31442;SDS011;18065;55.876;9.830;2023-08-17T09:13:00;2.45;;;0.70;;
31442;SDS011;18065;55.876;9.830;2023-08-17T09:15:29;1.60;;;0.60;;
31442;SDS011;18065;55.876;9.830;2023-08-17T09:18:00;3.03;;;0.60;;
31442;SDS011;18065;55.876;9.830;2023-08-17T09:20:36;3.15;;;0.80;;
31442;SDS011;18065;55.876;9.830;2023-08-17T09:23:12;1.70;;;0.50;;
31442;SDS011;18065;55.876;9.830;2023-08-17T09:25:42;2.55;;;0.60;;
31442;SDS011;18065;55.876;9.830;2023-08-17T09:28:11;1.73;;;0.70;;
31442;SDS011;18065;55.876;9.830;2023-08-17T09:30:51;1.10;;;0.60;;
31442;SDS011;18065;55.876;9.830;2023-08-17T09:33:24;1.42;;;0.65;;
31442;SDS011;18065;55.876;9.830;2023-08-17T09:35:54;1.83;;;0.52;;
31442;SDS011;18065;55.876;9.830;2023-08-17T09:38:23;2.08;;;0.70;;
31442;SDS011;18065;55.876;9.830;2023-08-17T09:40:53;2.83;;;0.85;;
31442;SDS011;18065;55.876;9.830;2023-08-17T09:43:21;2.55;;;0.70;;
31442;SDS011;18065;55.876;9.830;2023-08-17T09:45:53;3.10;;;0.80;;
31442;SDS011;18065;55.876;9.830;2023-08-17T09:48:25;2.45;;;0.88;;
31442;SDS011;18065;55.876;9.830;2023-08-17T09:50:55;1.77;;;0.70;;
31442;SDS011;18065;55.876;9.830;2023-08-17T09:53:26;1.42;;;0.70;;
31442;SDS011;18065;55.876;9.830;2023-08-17T09:55:55;1.90;;;0.57;;
31442;SDS011;18065;55.876;9.830;2023-08-17T09:58:25;3.03;;;0.85;;
31442;SDS011;18065;55.876;9.830;2023-08-17T10:00:54;1.52;;;0.60;;
31442;SDS011;18065;55.876;9.830;2023-08-17T10:03:27;1.88;;;0.70;;
31442;SDS011;18065;55.876;9.830;2023-08-17T10:06:02;3.10;;;1.40;;
31442;SDS011;18065;55.876;9.830;2023-08-17T10:08:33;3.38;;;1.00;;
31442;SDS011;18065;55.876;9.830;2023-08-17T10:11:11;3.03;;;0.80;;
31442;SDS011;18065;55.876;9.830;2023-08-17T10:13:43;1.30;;;0.80;;
31442;SDS011;18065;55.876;9.830;2023-08-17T10:16:20;1.60;;;0.80;;
31442;SDS011;18065;55.876;9.830;2023-08-17T10:18:57;3.85;;;1.00;;
31442;SDS011;18065;55.876;9.830;2023-08-17T10:21:35;1.98;;;0.77;;
31442;SDS011;18065;55.876;9.830;2023-08-17T10:24:07;2.03;;;0.80;;
31442;SDS011;18065;55.876;9.830;2023-08-17T10:26:37;2.10;;;0.65;;
31442;SDS011;18065;55.876;9.830;2023-08-17T10:29:06;1.85;;;1.00;;
31442;SDS011;18065;55.876;9.830;2023-08-17T10:31:37;3.35;;;0.70;;
31442;SDS011;18065;55.876;9.830;2023-08-17T10:34:09;1.65;;;0.70;;
31442;SDS011;18065;55.876;9.830;2023-08-17T10:36:38;2.60;;;0.75;;
31442;SDS011;18065;55.876;9.830;2023-08-17T10:41:59;2.25;;;0.75;;
31442;SDS011;18065;55.876;9.830;2023-08-17T10:44:38;1.77;;;0.70;;
31442;SDS011;18065;55.876;9.830;2023-08-17T10:47:21;2.15;;;1.00;;
31442;SDS011;18065;55.876;9.830;2023-08-17T10:49:55;2.25;;;0.80;;
31442;SDS011;18065;55.876;9.830;2023-08-17T10:52:28;1.83;;;0.80;;
31442;SDS011;18065;55.876;9.830;2023-08-17T10:54:59;2.70;;;1.00;;
31442;SDS011;18065;55.876;9.830;2023-08-17T10:57:31;1.85;;;0.70;;
31442;SDS011;18065;55.876;9.830;2023-08-17T11:00:16;1.42;;;1.10;;
31442;SDS011;18065;55.876;9.830;2023-08-17T11:02:53;2.58;;;1.02;;
31442;SDS011;18065;55.876;9.830;2023-08-17T11:05:40;2.35;;;1.10;;
31442;SDS011;18065;55.876;9.830;2023-08-17T11:08:10;5.20;;;1.17;;
31442;SDS011;18065;55.876;9.830;2023-08-17T11:10:41;3.33;;;1.20;;
31442;SDS011;18065;55.876;9.830;2023-08-17T11:13:15;2.88;;;1.27;;
31442;SDS011;18065;55.876;9.830;2023-08-17T11:15:43;3.33;;;0.98;;
31442;SDS011;18065;55.876;9.830;2023-08-17T11:18:13;2.92;;;1.10;;
31442;SDS011;18065;55.876;9.830;2023-08-17T11:20:44;1.45;;;0.80;;
31442;SDS011;18065;55.876;9.830;2023-08-17T11:23:13;4.88;;;1.08;;
31442;SDS011;18065;55.876;9.830;2023-08-17T11:25:42;1.83;;;0.80;;
31442;SDS011;18065;55.876;9.830;2023-08-17T11:28:13;3.08;;;0.75;;
31442;SDS011;18065;55.876;9.830;2023-08-17T11:30:43;4.15;;;1.00;;
31442;SDS011;18065;55.876;9.830;2023-08-17T11:33:12;1.63;;;0.90;;
31442;SDS011;18065;55.876;9.830;2023-08-17T11:35:41;2.95;;;1.13;;
31442;SDS011;18065;55.876;9.830;2023-08-17T11:38:13;0.90;;;0.80;;
31442;SDS011;18065;55.876;9.830;2023-08-17T11:40:42;2.50;;;0.88;;
31442;SDS011;18065;55.876;9.830;2023-08-17T11:43:11;2.33;;;0.98;;
31442;SDS011;18065;55.876;9.830;2023-08-17T11:45:40;4.35;;;1.00;;
31442;SDS011;18065;55.876;9.830;2023-08-17T11:48:11;2.05;;;0.80;;
31442;SDS011;18065;55.876;9.830;2023-08-17T11:50:42;1.58;;;0.75;;
31442;SDS011;18065;55.876;9.830;2023-08-17T11:53:14;2.42;;;0.90;;
31442;SDS011;18065;55.876;9.830;2023-08-17T11:55:43;2.25;;;1.08;;
31442;SDS011;18065;55.876;9.830;2023-08-17T11:58:12;3.30;;;0.90;;
31442;SDS011;18065;55.876;9.830;2023-08-17T12:00:41;1.45;;;0.77;;
31442;SDS011;18065;55.876;9.830;2023-08-17T12:03:15;2.03;;;0.88;;
31442;SDS011;18065;55.876;9.830;2023-08-17T12:05:44;2.80;;;0.90;;
31442;SDS011;18065;55.876;9.830;2023-08-17T12:08:16;1.35;;;0.73;;
31442;SDS011;18065;55.876;9.830;2023-08-17T12:10:45;3.65;;;1.00;;
31442;SDS011;18065;55.876;9.830;2023-08-17T12:13:14;2.72;;;0.90;;
31442;SDS011;18065;55.876;9.830;2023-08-17T12:15:43;3.92;;;0.80;;
31442;SDS011;18065;55.876;9.830;2023-08-17T12:18:13;1.95;;;1.00;;
31442;SDS011;18065;55.876;9.830;2023-08-17T12:20:44;0.98;;;0.60;;
31442;SDS011;18065;55.876;9.830;2023-08-17T12:23:23;1.35;;;0.75;;
31442;SDS011;18065;55.876;9.830;2023-08-17T12:25:52;0.90;;;0.60;;
31442;SDS011;18065;55.876;9.830;2023-08-17T12:28:22;2.22;;;0.80;;
31442;SDS011;18065;55.876;9.830;2023-08-17T12:30:58;2.53;;;1.00;;
31442;SDS011;18065;55.876;9.830;2023-08-17T12:33:30;1.00;;;0.68;;
31442;SDS011;18065;55.876;9.830;2023-08-17T12:35:59;2.33;;;0.80;;
31442;SDS011;18065;55.876;9.830;2023-08-17T12:38:32;2.42;;;1.05;;
31442;SDS011;18065;55.876;9.830;2023-08-17T12:41:00;2.85;;;0.73;;
31442;SDS011;18065;55.876;9.830;2023-08-17T12:43:29;2.30;;;0.80;;
31442;SDS011;18065;55.876;9.830;2023-08-17T12:45:58;3.00;;;0.90;;
31442;SDS011;18065;55.876;9.830;2023-08-17T12:48:27;2.33;;;0.85;;
31442;SDS011;18065;55.876;9.830;2023-08-17T12:50:55;1.20;;;0.80;;
31442;SDS011;18065;55.876;9.830;2023-08-17T12:53:24;1.75;;;0.60;;
31442;SDS011;18065;55.876;9.830;2023-08-17T12:55:56;1.50;;;0.77;;
31442;SDS011;18065;55.876;9.830;2023-08-17T12:58:24;2.00;;;0.80;;
31442;SDS011;18065;55.876;9.830;2023-08-17T13:00:53;1.73;;;0.77;;
31442;SDS011;18065;55.876;9.830;2023-08-17T13:03:22;1.00;;;0.80;;
31442;SDS011;18065;55.876;9.830;2023-08-17T13:05:51;1.30;;;0.73;;
31442;SDS011;18065;55.876;9.830;2023-08-17T13:08:19;3.42;;;0.82;;
31442;SDS011;18065;55.876;9.830;2023-08-17T13:10:48;2.28;;;0.80;;
31442;SDS011;18065;55.876;9.830;2023-08-17T13:13:19;1.33;;;0.80;;
31442;SDS011;18065;55.876;9.830;2023-08-17T13:15:48;2.03;;;0.95;;
31442;SDS011;18065;55.876;9.830;2023-08-17T13:18:17;2.00;;;0.65;;
31442;SDS011;18065;55.876;9.830;2023-08-17T13:20:46;1.77;;;0.70;;
31442;SDS011;18065;55.876;9.830;2023-08-17T13:23:14;2.00;;;0.90;;
31442;SDS011;18065;55.876;9.830;2023-08-17T13:25:43;2.00;;;0.80;;
31442;SDS011;18065;55.876;9.830;2023-08-17T13:28:12;1.58;;;1.02;;
31442;SDS011;18065;55.876;9.830;2023-08-17T13:30:43;1.65;;;0.80;;
31442;SDS011;18065;55.876;9.830;2023-08-17T13:33:12;1.90;;;0.85;;
31442;SDS011;18065;55.876;9.830;2023-08-17T13:35:41;3.95;;;0.80;;
31442;SDS011;18065;55.876;9.830;2023-08-17T13:38:10;2.92;;;0.55;;
31442;SDS011;18065;55.876;9.830;2023-08-17T13:40:39;4.55;;;0.88;;
31442;SDS011;18065;55.876;9.830;2023-08-17T13:43:07;2.17;;;0.90;;
31442;SDS011;18065;55.876;9.830;2023-08-17T13:45:37;1.70;;;1.00;;
31442;SDS011;18065;55.876;9.830;2023-08-17T13:48:09;1.77;;;0.82;;
31442;SDS011;18065;55.876;9.830;2023-08-17T13:50:38;3.40;;;0.70;;
31442;SDS011;18065;55.876;9.830;2023-08-17T13:53:07;2.13;;;0.60;;
31442;SDS011;18065;55.876;9.830;2023-08-17T13:55:36;3.20;;;0.77;;
31442;SDS011;18065;55.876;9.830;2023-08-17T13:58:04;2.45;;;0.90;;
31442;SDS011;18065;55.876;9.830;2023-08-17T14:00:35;3.55;;;0.75;;
31442;SDS011;18065;55.876;9.830;2023-08-17T14:03:04;2.67;;;0.90;;
31442;SDS011;18065;55.876;9.830;2023-08-17T14:05:36;1.75;;;0.75;;
31442;SDS011;18065;55.876;9.830;2023-08-17T14:08:05;0.82;;;0.75;;
31442;SDS011;18065;55.876;9.830;2023-08-17T14:10:36;2.15;;;0.80;;
31442;SDS011;18065;55.876;9.830;2023-08-17T14:13:05;2.30;;;0.82;;
31442;SDS011;18065;55.876;9.830;2023-08-17T14:15:33;2.28;;;0.90;;
31442;SDS011;18065;55.876;9.830;2023-08-17T14:18:03;4.35;;;1.05;;
31442;SDS011;18065;55.876;9.830;2023-08-17T14:20:32;1.60;;;0.80;;
31442;SDS011;18065;55.876;9.830;2023-08-17T14:23:03;1.33;;;0.80;;
31442;SDS011;18065;55.876;9.830;2023-08-17T14:25:32;4.00;;;1.10;;
31442;SDS011;18065;55.876;9.830;2023-08-17T14:28:03;4.82;;;1.02;;
31442;SDS011;18065;55.876;9.830;2023-08-17T14:30:32;2.05;;;1.08;;
31442;SDS011;18065;55.876;9.830;2023-08-17T14:33:01;2.70;;;0.90;;
31442;SDS011;18065;55.876;9.830;2023-08-17T14:35:30;3.45;;;0.73;;
31442;SDS011;18065;55.876;9.830;2023-08-17T14:37:59;4.32;;;0.93;;
31442;SDS011;18065;55.876;9.830;2023-08-17T14:40:30;1.50;;;0.75;;
31442;SDS011;18065;55.876;9.830;2023-08-17T14:42:59;3.60;;;0.98;;
31442;SDS011;18065;55.876;9.830;2023-08-17T14:45:28;2.50;;;0.85;;
31442;SDS011;18065;55.876;9.830;2023-08-17T14:47:56;1.80;;;0.75;;
31442;SDS011;18065;55.876;9.830;2023-08-17T14:50:25;2.00;;;0.90;;
31442;SDS011;18065;55.876;9.830;2023-08-17T14:52:54;1.85;;;0.70;;
31442;SDS011;18065;55.876;9.830;2023-08-17T14:55:23;1.52;;;0.80;;
31442;SDS011;18065;55.876;9.830;2023-08-17T14:57:54;3.28;;;1.17;;
31442;SDS011;18065;55.876;9.830;2023-08-17T15:00:23;2.20;;;0.80;;
31442;SDS011;18065;55.876;9.830;2023-08-17T15:02:55;3.15;;;1.35;;
31442;SDS011;18065;55.876;9.830;2023-08-17T15:05:24;5.55;;;1.00;;
31442;SDS011;18065;55.876;9.830;2023-08-17T15:07:53;2.60;;;0.90;;